createdAt,value
2019-05-15T00:00:23.009Z,75.64
2019-05-15T00:01:23.231Z,75.99
2019-05-15T00:02:23.821Z,75.44
2019-05-15T00:03:24.617Z,75.39
2019-05-15T00:04:25.178Z,75.52
2019-05-15T00:05:25.841Z,75.97
2019-05-15T00:06:28.530Z,74.73
2019-05-15T00:07:26.035Z,74.51
2019-05-15T00:08:28.763Z,74.98
2019-05-15T00:09:28.635Z,75.13
2019-05-15T00:10:28.765Z,74.78
2019-05-15T00:11:28.927Z,75.52
2019-05-15T00:12:29.595Z,75.24
2019-05-15T00:13:31.164Z,76.16
2019-05-15T00:14:31.848Z,75.90
2019-05-15T00:15:32.506Z,75.80
2019-05-15T00:16:33.177Z,76.28
2019-05-15T00:17:33.313Z,76.98
2019-05-15T00:18:33.938Z,76.22
2019-05-15T00:19:34.459Z,75.78
2019-05-15T00:20:35.179Z,76.29
2019-05-15T00:20:43.698Z,75.71
2019-05-15T00:21:44.500Z,75.73
2019-05-15T00:22:48.251Z,75.80
2019-05-15T00:23:45.711Z,76.24
2019-05-15T00:24:48.851Z,76.56
2019-05-15T00:25:48.791Z,75.98
2019-05-15T00:26:48.053Z,75.74
2019-05-15T00:27:49.145Z,75.68
2019-05-15T00:28:48.218Z,76.80
2019-05-15T00:29:49.830Z,76.65
2019-05-15T00:30:50.344Z,76.34
2019-05-15T00:31:50.872Z,76.67
2019-05-15T00:32:51.487Z,77.06
2019-05-15T00:33:52.239Z,76.58
2019-05-15T00:34:52.884Z,77.10
2019-05-15T00:35:53.470Z,76.91
2019-05-15T00:36:54.329Z,76.99
2019-05-15T00:37:55.063Z,77.28
2019-05-15T00:38:55.670Z,76.59
2019-05-15T00:39:56.277Z,76.78
2019-05-15T00:40:58.452Z,77.52
2019-05-15T00:41:58.872Z,77.40
2019-05-15T00:42:57.924Z,77.11
2019-05-15T00:43:58.456Z,77.20
2019-05-15T00:44:58.595Z,78.03
2019-05-15T00:45:59.050Z,77.92
2019-05-15T00:47:00.706Z,78.08
2019-05-15T00:48:01.390Z,77.53
2019-05-15T00:49:01.932Z,77.67
2019-05-15T00:50:02.507Z,77.74
2019-05-15T00:51:03.276Z,77.52
2019-05-15T00:52:03.832Z,77.60
2019-05-15T00:53:04.562Z,77.72
2019-05-15T00:54:05.405Z,78.62
2019-05-15T00:55:08.486Z,78.37
2019-05-15T00:56:05.915Z,77.97
2019-05-15T00:57:08.551Z,77.71
2019-05-15T00:58:08.759Z,77.78
2019-05-15T00:59:08.366Z,77.98
2019-05-15T01:00:08.398Z,78.72
2019-05-15T01:01:09.960Z,78.35
2019-05-15T01:02:10.510Z,78.00
2019-05-15T01:03:11.140Z,78.62
2019-05-15T01:04:11.871Z,79.21
2019-05-15T01:05:12.709Z,79.58
2019-05-15T01:06:13.264Z,79.62
2019-05-15T01:07:13.907Z,79.90
2019-05-15T01:08:14.509Z,79.42
2019-05-15T01:09:15.226Z,79.08
2019-05-15T01:10:15.724Z,79.37
2019-05-15T01:11:16.322Z,78.98
2019-05-15T01:12:18.454Z,79.48
2019-05-15T01:13:18.806Z,79.13
2019-05-15T01:14:18.635Z,79.44
2019-05-15T01:15:18.409Z,80.12
2019-05-15T01:16:18.710Z,79.15
2019-05-15T01:17:18.864Z,79.35
2019-05-15T01:18:20.631Z,79.70
2019-05-15T01:19:21.368Z,80.33
2019-05-15T01:19:29.893Z,80.40
2019-05-15T01:20:31.401Z,80.27
2019-05-15T01:21:31.943Z,79.95
2019-05-15T01:22:32.606Z,80.13
2019-05-15T01:23:32.617Z,80.49
2019-05-15T01:24:33.261Z,80.92
2019-05-15T01:25:34.063Z,80.87
2019-05-15T01:26:35.031Z,81.16
2019-05-15T01:27:35.651Z,81.28
2019-05-15T01:28:38.177Z,81.76
2019-05-15T01:29:41.947Z,81.41
2019-05-15T01:30:39.045Z,81.29
2019-05-15T01:31:38.045Z,80.87
2019-05-15T01:32:39.593Z,80.59
2019-05-15T01:33:39.327Z,80.64
2019-05-15T01:34:39.690Z,80.33
2019-05-15T01:35:41.312Z,80.38
2019-05-15T01:36:41.952Z,80.39
2019-05-15T01:37:41.724Z,80.93
2019-05-15T01:38:42.820Z,80.52
2019-05-15T01:39:43.447Z,80.69
2019-05-15T01:40:44.037Z,81.27
2019-05-15T01:41:44.871Z,81.38
2019-05-15T01:42:43.859Z,81.50
2019-05-15T01:43:45.563Z,81.43
2019-05-15T01:44:48.254Z,81.12
2019-05-15T01:45:48.103Z,81.03
2019-05-15T01:46:48.274Z,81.60
2019-05-15T01:47:47.990Z,81.52
2019-05-15T01:48:49.315Z,81.74
2019-05-15T01:49:49.028Z,82.53
2019-05-15T01:50:49.481Z,81.92
2019-05-15T01:51:49.673Z,82.46
2019-05-15T01:52:51.236Z,82.46
2019-05-15T01:53:51.937Z,82.63
2019-05-15T01:54:52.494Z,82.84
2019-05-15T01:55:53.083Z,82.80
2019-05-15T01:56:53.619Z,83.62
2019-05-15T01:57:54.282Z,83.58
2019-05-15T01:58:54.899Z,83.49
2019-05-15T02:00:00.265Z,83.34
2019-05-15T02:00:54.897Z,83.52
2019-05-15T02:01:58.898Z,82.90
2019-05-15T02:02:56.016Z,83.16
2019-05-15T02:03:59.036Z,83.24
2019-05-15T02:04:59.113Z,83.08
2019-05-15T02:05:58.609Z,83.17
2019-05-15T02:06:58.977Z,84.01
2019-05-15T02:07:59.016Z,83.26
2019-05-15T02:09:00.550Z,84.06
2019-05-15T02:10:01.147Z,84.18
2019-05-15T02:11:01.879Z,83.64
2019-05-15T02:12:02.447Z,83.47
2019-05-15T02:13:03.046Z,83.28
2019-05-15T02:14:03.667Z,83.91
2019-05-15T02:15:04.312Z,83.34
2019-05-15T02:16:05.056Z,83.11
2019-05-15T02:17:05.583Z,83.08
2019-05-15T02:17:14.100Z,83.06
2019-05-15T02:18:15.863Z,83.08
2019-05-15T02:19:16.450Z,83.10
2019-05-15T02:20:18.743Z,83.45
2019-05-15T02:21:18.258Z,83.76
2019-05-15T02:22:18.929Z,83.79
2019-05-15T02:23:18.884Z,83.99
2019-05-15T02:24:18.959Z,83.76
2019-05-15T02:25:18.774Z,83.14
2019-05-15T02:26:20.459Z,83.35
2019-05-15T02:27:21.175Z,83.70
2019-05-15T02:28:21.958Z,83.95
2019-05-15T02:29:25.116Z,84.14
2019-05-15T02:30:28.812Z,83.57
2019-05-15T02:31:22.773Z,83.62
2019-05-15T02:32:24.412Z,83.88
2019-05-15T02:33:25.127Z,84.29
2019-05-15T02:34:25.656Z,84.22
2019-05-15T02:35:29.613Z,83.91
2019-05-15T02:36:29.040Z,84.17
2019-05-15T02:37:29.439Z,83.90
2019-05-15T02:38:29.553Z,83.60
2019-05-15T02:39:28.936Z,83.95
2019-05-15T02:40:29.418Z,84.28
2019-05-15T02:41:29.840Z,84.48
2019-05-15T02:42:29.224Z,84.42
2019-05-15T02:43:30.056Z,84.62
2019-05-15T02:44:30.134Z,84.32
2019-05-15T02:45:36.327Z,84.59
2019-05-15T02:46:31.606Z,84.49
2019-05-15T02:47:33.179Z,84.44
2019-05-15T02:48:34.012Z,84.29
2019-05-15T02:49:34.616Z,85.23
2019-05-15T02:50:35.171Z,84.87
2019-05-15T02:51:35.920Z,85.19
2019-05-15T02:52:39.708Z,84.97
2019-05-15T02:53:39.204Z,84.94
2019-05-15T02:54:36.572Z,84.55
2019-05-15T02:55:40.226Z,84.61
2019-05-15T02:56:39.217Z,85.00
2019-05-15T02:57:39.408Z,84.52
2019-05-15T02:58:39.896Z,85.26
2019-05-15T02:59:39.949Z,84.98
2019-05-15T03:00:47.303Z,84.98
2019-05-15T03:01:40.865Z,85.46
2019-05-15T03:02:41.790Z,85.04
2019-05-15T03:03:42.214Z,85.57
2019-05-15T03:04:43.741Z,85.45
2019-05-15T03:05:44.336Z,85.66
2019-05-15T03:06:44.924Z,85.53
2019-05-15T03:07:45.471Z,85.71
2019-05-15T03:08:49.246Z,85.77
2019-05-15T03:09:45.543Z,85.87
2019-05-15T03:10:49.787Z,85.60
2019-05-15T03:11:49.364Z,85.90
2019-05-15T03:12:49.508Z,86.30
2019-05-15T03:13:50.362Z,85.65
2019-05-15T03:14:49.209Z,86.02
2019-05-15T03:15:49.233Z,85.93
2019-05-15T03:16:49.934Z,85.78
2019-05-15T03:17:50.340Z,86.18
2019-05-15T03:18:55.585Z,86.41
2019-05-15T03:19:51.738Z,86.58
2019-05-15T03:20:53.320Z,86.67
2019-05-15T03:21:54.045Z,86.43
2019-05-15T03:22:54.668Z,86.93
2019-05-15T03:23:55.275Z,86.42
2019-05-15T03:24:59.075Z,86.71
2019-05-15T03:25:55.431Z,87.19
2019-05-15T03:26:59.317Z,88.57
2019-05-15T03:27:59.404Z,87.94
2019-05-15T03:28:59.033Z,87.34
2019-05-15T03:29:59.343Z,87.41
2019-05-15T03:32:15.119Z,87.44
2019-05-15T03:33:07.757Z,87.11
2019-05-15T03:34:02.797Z,87.25
2019-05-15T03:35:04.950Z,86.87
2019-05-15T03:36:03.544Z,87.19
2019-05-15T03:37:04.155Z,87.40
2019-05-15T03:38:03.161Z,87.37
2019-05-15T03:38:11.787Z,87.15
2019-05-15T03:39:12.183Z,87.27
2019-05-15T03:40:13.715Z,87.45
2019-05-15T03:41:14.241Z,87.08
2019-05-15T03:42:15.022Z,87.09
2019-05-15T03:43:18.419Z,87.44
2019-05-15T03:44:15.202Z,87.40
2019-05-15T03:45:19.302Z,87.29
2019-05-15T03:46:19.683Z,87.97
2019-05-15T03:47:19.481Z,88.07
2019-05-15T03:48:19.565Z,87.72
2019-05-15T03:49:19.877Z,87.87
2019-05-15T03:50:19.518Z,87.94
2019-05-15T03:51:20.059Z,88.04
2019-05-15T03:52:20.099Z,88.30
2019-05-15T03:53:21.790Z,88.09
2019-05-15T03:54:22.449Z,88.29
2019-05-15T03:55:22.937Z,88.14
2019-05-15T03:56:23.514Z,87.87
2019-05-15T03:57:24.070Z,88.23
2019-05-15T03:58:24.701Z,88.65
2019-05-15T03:59:25.181Z,88.99
2019-05-15T04:00:25.638Z,89.02
2019-05-15T04:01:34.069Z,88.30
2019-05-15T04:02:28.635Z,88.42
2019-05-15T04:03:29.662Z,88.96
2019-05-15T04:04:29.645Z,88.68
2019-05-15T04:05:29.379Z,88.58
2019-05-15T04:06:29.888Z,88.99
2019-05-15T04:07:29.327Z,88.51
2019-05-15T04:08:30.067Z,88.88
2019-05-15T04:09:30.152Z,89.14
2019-05-15T04:10:31.668Z,89.14
2019-05-15T04:11:32.393Z,89.28
2019-05-15T04:12:32.935Z,89.01
2019-05-15T04:13:33.704Z,88.98
2019-05-15T04:14:34.514Z,89.25
2019-05-15T04:15:39.070Z,88.89
2019-05-15T04:16:34.627Z,88.98
2019-05-15T04:17:36.190Z,88.55
2019-05-15T04:18:35.796Z,88.78
2019-05-15T04:19:39.147Z,88.71
2019-05-15T04:20:39.941Z,89.14
2019-05-15T04:21:41.493Z,89.03
2019-05-15T04:22:40.119Z,88.77
2019-05-15T04:23:39.478Z,88.53
2019-05-15T04:24:39.720Z,88.38
2019-05-15T04:25:39.926Z,88.73
2019-05-15T04:26:40.524Z,88.54
2019-05-15T04:27:41.998Z,88.34
2019-05-15T04:28:42.961Z,88.68
2019-05-15T04:29:43.744Z,89.07
2019-05-15T04:30:43.862Z,88.81
2019-05-15T04:31:56.410Z,89.03
2019-05-15T04:32:44.224Z,88.87
2019-05-15T04:33:48.890Z,89.02
2019-05-15T04:34:45.474Z,89.78
2019-05-15T04:35:49.706Z,89.79
2019-05-15T04:36:49.504Z,89.39
2019-05-15T04:37:49.426Z,89.46
2019-05-15T04:38:49.738Z,89.06
2019-05-15T04:39:49.119Z,89.06
2019-05-15T04:40:50.123Z,88.84
2019-05-15T04:41:50.204Z,89.07
2019-05-15T04:42:50.383Z,88.79
2019-05-15T04:43:50.938Z,87.59
2019-05-15T04:44:52.505Z,86.56
2019-05-15T04:45:53.096Z,85.47
2019-05-15T04:46:53.786Z,85.02
2019-05-15T04:47:54.377Z,83.21
2019-05-15T04:48:55.251Z,81.02
2019-05-15T04:49:03.778Z,80.36
2019-05-15T04:50:08.592Z,80.26
2019-05-15T04:51:05.027Z,77.43
2019-05-15T04:52:09.745Z,76.99
2019-05-15T04:53:10.026Z,75.10
2019-05-15T04:54:09.545Z,74.32
2019-05-15T04:55:10.116Z,72.46
2019-05-15T04:56:09.409Z,71.76
2019-05-15T04:57:09.479Z,70.58
2019-05-15T04:58:10.594Z,67.86
2019-05-15T04:59:10.574Z,66.88
2019-05-15T05:00:12.435Z,66.87
2019-05-15T05:01:13.416Z,65.34
2019-05-15T05:02:19.488Z,64.93
2019-05-15T05:03:13.635Z,64.65
2019-05-15T05:04:15.337Z,62.44
2019-05-15T05:05:18.797Z,62.08
2019-05-15T05:06:15.434Z,62.20
2019-05-15T05:07:18.871Z,61.78
2019-05-15T05:08:19.730Z,60.30
2019-05-15T05:09:19.832Z,58.01
2019-05-15T05:10:19.633Z,58.16
2019-05-15T05:11:19.378Z,58.49
2019-05-15T05:12:19.547Z,57.03
2019-05-15T05:13:20.461Z,56.41
2019-05-15T05:14:20.444Z,55.60
2019-05-15T05:15:22.015Z,54.64
2019-05-15T05:16:22.548Z,54.45
2019-05-15T05:17:23.208Z,54.43
2019-05-15T05:18:23.717Z,53.96
2019-05-15T05:19:24.290Z,52.98
2019-05-15T05:20:24.899Z,53.57
2019-05-15T05:21:27.717Z,52.94
2019-05-15T05:22:25.255Z,53.09
2019-05-15T05:23:28.341Z,52.78
2019-05-15T05:24:28.004Z,51.62
2019-05-15T05:25:27.978Z,52.73
2019-05-15T05:26:29.338Z,50.85
2019-05-15T05:27:28.897Z,50.63
2019-05-15T05:28:29.107Z,50.31
2019-05-15T05:29:29.613Z,48.87
2019-05-15T05:30:31.161Z,50.82
2019-05-15T05:31:31.722Z,51.14
2019-05-15T05:32:35.270Z,49.44
2019-05-15T05:33:32.077Z,49.18
2019-05-15T05:34:33.655Z,47.39
2019-05-15T05:35:34.405Z,48.45
2019-05-15T05:36:34.908Z,47.05
2019-05-15T05:37:35.658Z,47.04
2019-05-15T05:38:38.474Z,45.96
2019-05-15T05:39:35.770Z,46.00
2019-05-15T05:40:38.497Z,46.99
2019-05-15T05:41:39.141Z,45.75
2019-05-15T05:42:39.008Z,47.22
2019-05-15T05:43:38.544Z,45.76
2019-05-15T05:44:40.719Z,45.94
2019-05-15T05:45:38.833Z,46.24
2019-05-15T05:46:40.619Z,45.73
2019-05-15T05:47:41.157Z,45.41
2019-05-15T05:48:41.257Z,44.98
2019-05-15T05:49:41.855Z,45.89
2019-05-15T05:50:44.334Z,46.82
2019-05-15T05:51:42.060Z,49.22
2019-05-15T05:52:43.623Z,49.81
2019-05-15T05:53:44.174Z,48.97
2019-05-15T05:54:44.890Z,49.70
2019-05-15T05:55:45.599Z,49.70
2019-05-15T05:56:48.203Z,47.96
2019-05-15T05:57:45.714Z,47.59
2019-05-15T05:57:54.234Z,48.61
2019-05-15T05:58:58.418Z,48.88
2019-05-15T05:59:55.605Z,50.28
2019-05-15T06:00:58.639Z,48.88
2019-05-15T06:01:58.928Z,47.16
2019-05-15T06:02:59.093Z,47.62
2019-05-15T06:03:58.470Z,47.14
2019-05-15T06:04:59.107Z,47.33
2019-05-15T06:06:00.623Z,46.46
2019-05-15T06:07:13.354Z,46.10
2019-05-15T06:08:00.893Z,44.45
2019-05-15T06:09:02.460Z,44.86
2019-05-15T06:10:02.607Z,44.10
2019-05-15T06:11:03.284Z,43.93
2019-05-15T06:12:03.799Z,43.38
2019-05-15T06:13:04.770Z,43.10
2019-05-15T06:14:05.298Z,42.86
2019-05-15T06:15:05.791Z,42.23
2019-05-15T06:16:08.517Z,41.38
2019-05-15T06:17:08.210Z,40.90
2019-05-15T06:18:08.294Z,41.15
2019-05-15T06:19:08.295Z,40.11
2019-05-15T06:20:08.091Z,40.49
2019-05-15T06:21:09.113Z,40.00
2019-05-15T06:22:08.954Z,40.11
2019-05-15T06:23:09.431Z,40.17
2019-05-15T06:24:13.216Z,39.85
2019-05-15T06:25:11.726Z,39.95
2019-05-15T06:26:11.001Z,38.97
2019-05-15T06:27:12.582Z,39.16
2019-05-15T06:28:13.031Z,37.84
2019-05-15T06:29:13.577Z,38.11
2019-05-15T06:30:19.997Z,39.43
2019-05-15T06:31:13.636Z,38.97
2019-05-15T06:32:15.157Z,38.94
2019-05-15T06:33:15.668Z,38.87
2019-05-15T06:34:17.872Z,38.64
2019-05-15T06:35:15.719Z,38.12
2019-05-15T06:36:18.034Z,37.71
2019-05-15T06:37:19.468Z,36.93
2019-05-15T06:38:19.418Z,36.59
2019-05-15T06:39:18.064Z,36.72
2019-05-15T06:40:18.464Z,36.30
2019-05-15T06:41:20.109Z,36.27
2019-05-15T06:42:20.698Z,35.61
2019-05-15T06:43:21.412Z,36.93
2019-05-15T06:44:21.975Z,36.01
2019-05-15T06:45:22.708Z,35.99
2019-05-15T06:46:23.340Z,35.94
2019-05-15T06:47:23.940Z,36.67
2019-05-15T06:48:24.414Z,37.28
2019-05-15T06:49:25.033Z,36.83
2019-05-15T06:50:25.752Z,37.48
2019-05-15T06:51:28.683Z,36.33
2019-05-15T06:52:28.312Z,35.99
2019-05-15T06:53:28.873Z,36.01
2019-05-15T06:54:28.439Z,36.17
2019-05-15T06:55:28.902Z,35.81
2019-05-15T06:56:28.837Z,36.09
2019-05-15T06:57:30.534Z,36.26
2019-05-15T06:58:31.282Z,36.99
2019-05-15T06:59:31.779Z,37.22
2019-05-15T07:00:32.551Z,36.57
2019-05-15T07:01:33.233Z,36.12
2019-05-15T07:02:33.734Z,35.24
2019-05-15T07:02:42.264Z,35.54
2019-05-15T07:03:44.074Z,35.68
2019-05-15T07:04:44.761Z,36.09
2019-05-15T07:05:45.289Z,35.78
2019-05-15T07:06:45.900Z,36.11
2019-05-15T07:07:48.710Z,36.64
2019-05-15T07:08:49.294Z,36.29
2019-05-15T07:09:48.670Z,36.43
2019-05-15T07:10:48.707Z,35.94
2019-05-15T07:11:48.274Z,36.48
2019-05-15T07:12:51.424Z,35.89
2019-05-15T07:13:48.767Z,36.80
2019-05-15T07:14:49.053Z,37.01
2019-05-15T07:15:50.749Z,37.14
2019-05-15T07:16:51.273Z,37.06
2019-05-15T07:17:51.816Z,36.10
2019-05-15T07:18:52.413Z,36.29
2019-05-15T07:19:53.088Z,36.74
2019-05-15T07:20:53.607Z,36.64
2019-05-15T07:21:54.446Z,37.68
2019-05-15T07:22:54.967Z,36.83
2019-05-15T07:23:58.148Z,35.89
2019-05-15T07:24:55.276Z,35.97
2019-05-15T07:25:58.774Z,35.66
2019-05-15T07:26:59.110Z,34.87
2019-05-15T07:27:58.037Z,35.43
2019-05-15T07:28:59.563Z,36.04
2019-05-15T07:29:58.507Z,36.39
2019-05-15T07:30:58.885Z,36.45
2019-05-15T07:32:00.353Z,36.26
2019-05-15T07:33:00.898Z,36.54
2019-05-15T07:34:01.578Z,36.97
2019-05-15T07:35:02.114Z,36.44
2019-05-15T07:36:02.154Z,35.94
2019-05-15T07:37:02.678Z,36.05
2019-05-15T07:38:03.280Z,36.35
2019-05-15T07:39:03.906Z,36.12
2019-05-15T07:40:04.422Z,36.80
2019-05-15T07:41:04.993Z,35.72
2019-05-15T07:42:04.686Z,36.44
2019-05-15T07:43:09.122Z,37.14
2019-05-15T07:44:07.906Z,36.86
2019-05-15T07:45:08.283Z,37.41
2019-05-15T07:46:08.460Z,36.88
2019-05-15T07:47:08.854Z,37.64
2019-05-15T07:48:09.182Z,36.89
2019-05-15T07:49:09.094Z,37.17
2019-05-15T07:50:09.418Z,37.29
2019-05-15T07:51:11.712Z,37.63
2019-05-15T07:52:10.603Z,37.98
2019-05-15T07:53:12.178Z,38.05
2019-05-15T07:54:12.747Z,39.45
2019-05-15T07:55:13.449Z,40.22
2019-05-15T07:56:14.114Z,40.74
2019-05-15T07:57:14.738Z,40.72
2019-05-15T07:58:15.312Z,40.51
2019-05-15T07:59:14.812Z,41.47
2019-05-15T08:00:18.828Z,41.41
2019-05-15T08:01:18.372Z,41.58
2019-05-15T08:02:18.892Z,41.60
2019-05-15T08:03:18.392Z,41.81
2019-05-15T08:04:26.217Z,40.56
2019-05-15T08:05:18.464Z,41.50
2019-05-15T08:06:18.855Z,41.01
2019-05-15T08:07:20.432Z,41.28
2019-05-15T08:08:20.927Z,41.76
2019-05-15T08:09:21.675Z,41.90
2019-05-15T08:09:30.252Z,42.22
2019-05-15T08:10:31.241Z,42.09
2019-05-15T08:11:31.779Z,41.48
2019-05-15T08:12:32.264Z,41.71
2019-05-15T08:13:32.956Z,40.50
2019-05-15T08:14:33.616Z,40.34
2019-05-15T08:15:34.221Z,41.53
2019-05-15T08:16:35.006Z,42.01
2019-05-15T08:17:35.921Z,41.14
2019-05-15T08:18:36.548Z,41.62
2019-05-15T08:19:38.403Z,40.84
2019-05-15T08:20:38.356Z,41.81
2019-05-15T08:21:38.484Z,40.88
2019-05-15T08:22:38.326Z,41.06
2019-05-15T08:23:39.157Z,41.55
2019-05-15T08:24:39.210Z,42.38
2019-05-15T08:25:39.143Z,41.98
2019-05-15T08:26:45.294Z,41.93
2019-05-15T08:27:40.314Z,41.78
2019-05-15T08:28:42.091Z,40.56
2019-05-15T08:29:42.963Z,40.78
2019-05-15T08:30:43.790Z,40.78
2019-05-15T08:31:43.364Z,41.15
2019-05-15T08:32:45.306Z,41.88
2019-05-15T08:33:44.527Z,41.38
2019-05-15T08:34:47.933Z,42.01
2019-05-15T08:35:48.769Z,40.59
2019-05-15T08:36:48.292Z,41.17
2019-05-15T08:37:49.023Z,42.53
2019-05-15T08:38:48.590Z,42.87
2019-05-15T08:39:48.909Z,41.55
2019-05-15T08:40:49.238Z,42.03
2019-05-15T08:41:49.466Z,43.15
2019-05-15T08:42:56.701Z,42.56
2019-05-15T08:43:50.541Z,42.47
2019-05-15T08:44:52.222Z,43.43
2019-05-15T08:45:52.898Z,43.48
2019-05-15T08:46:53.595Z,42.43
2019-05-15T08:47:54.185Z,42.72
2019-05-15T08:48:54.854Z,42.56
2019-05-15T08:49:57.853Z,42.30
2019-05-15T08:50:55.213Z,40.93
2019-05-15T08:51:58.418Z,40.85
2019-05-15T08:52:57.906Z,40.93
2019-05-15T08:53:58.015Z,41.36
2019-05-15T08:54:59.026Z,40.57
2019-05-15T08:55:58.981Z,40.43
2019-05-15T08:56:59.384Z,41.63
2019-05-15T08:58:06.631Z,42.03
2019-05-15T08:59:00.478Z,41.15
2019-05-15T09:00:02.368Z,40.90
2019-05-15T09:01:03.188Z,40.42
2019-05-15T09:02:03.756Z,40.43
2019-05-15T09:03:04.317Z,40.31
2019-05-15T09:04:04.911Z,40.87
2019-05-15T09:05:08.297Z,40.93
2019-05-15T09:06:04.537Z,40.76
2019-05-15T09:07:08.973Z,41.97
2019-05-15T09:08:09.105Z,41.45
2019-05-15T09:09:09.581Z,41.79
2019-05-15T09:10:09.071Z,41.05
2019-05-15T09:11:09.266Z,40.80
2019-05-15T09:12:09.048Z,41.52
2019-05-15T09:13:10.624Z,41.74
2019-05-15T09:14:11.330Z,41.74
2019-05-15T09:15:11.861Z,42.17
2019-05-15T09:16:12.462Z,42.48
2019-05-15T09:17:13.045Z,41.54
2019-05-15T09:17:21.602Z,41.91
2019-05-15T09:18:23.113Z,41.92
2019-05-15T09:19:22.569Z,41.43
2019-05-15T09:20:24.375Z,42.10
2019-05-15T09:21:24.516Z,42.64
2019-05-15T09:22:25.227Z,41.28
2019-05-15T09:23:25.704Z,40.89
2019-05-15T09:24:28.557Z,41.28
2019-05-15T09:25:28.643Z,39.80
2019-05-15T09:26:28.365Z,40.10
2019-05-15T09:27:27.907Z,40.36
2019-05-15T09:28:29.651Z,40.97
2019-05-15T09:29:28.640Z,40.77
2019-05-15T09:30:28.992Z,41.30
2019-05-15T09:31:30.511Z,39.42
2019-05-15T09:32:31.126Z,39.91
2019-05-15T09:33:31.718Z,39.96
2019-05-15T09:34:46.717Z,39.59
2019-05-15T09:35:31.814Z,41.05
2019-05-15T09:36:33.344Z,40.35
2019-05-15T09:37:33.947Z,40.46
2019-05-15T09:38:33.506Z,40.36
2019-05-15T09:39:35.076Z,39.78
2019-05-15T09:40:45.098Z,40.20
2019-05-15T09:41:35.396Z,41.32
2019-05-15T09:42:38.676Z,39.88
2019-05-15T09:43:38.540Z,40.69
2019-05-15T09:44:39.156Z,39.84
2019-05-15T09:45:38.306Z,41.72
2019-05-15T09:46:39.837Z,41.22
2019-05-15T09:47:40.427Z,40.14
2019-05-15T09:48:41.044Z,39.47
2019-05-15T09:49:41.663Z,40.91
2019-05-15T09:50:42.153Z,40.56
2019-05-15T09:51:42.790Z,39.79
2019-05-15T09:52:43.485Z,39.72
2019-05-15T09:53:44.263Z,39.19
2019-05-15T09:54:44.812Z,40.03
2019-05-15T09:55:45.386Z,40.78
2019-05-15T09:56:49.397Z,41.18
2019-05-15T09:57:45.630Z,41.40
2019-05-15T09:58:48.842Z,40.79
2019-05-15T09:59:48.823Z,40.59
2019-05-15T10:00:51.823Z,41.50
2019-05-15T10:01:48.286Z,43.25
2019-05-15T10:02:48.736Z,41.75
2019-05-15T10:03:48.742Z,41.48
2019-05-15T10:05:05.474Z,38.44
2019-05-15T10:05:49.974Z,37.68
2019-05-15T10:06:51.579Z,37.99
2019-05-15T10:07:52.158Z,38.32
2019-05-15T10:08:52.745Z,37.70
2019-05-15T10:09:53.266Z,36.90
2019-05-15T10:10:53.831Z,37.38
2019-05-15T10:11:54.483Z,38.61
2019-05-15T10:12:55.074Z,38.12
2019-05-15T10:13:55.723Z,39.17
2019-05-15T10:14:59.060Z,40.27
2019-05-15T10:15:58.436Z,38.28
2019-05-15T10:16:58.366Z,38.67
2019-05-15T10:17:59.768Z,37.81
2019-05-15T10:18:58.305Z,38.05
2019-05-15T10:19:58.591Z,39.72
2019-05-15T10:20:09.183Z,38.56
2019-05-15T10:21:09.042Z,38.86
2019-05-15T10:22:09.771Z,38.14
2019-05-15T10:23:09.599Z,37.48
2019-05-15T10:24:11.274Z,38.17
2019-05-15T10:25:11.948Z,37.22
2019-05-15T10:26:14.210Z,36.90
2019-05-15T10:27:12.482Z,37.54
2019-05-15T10:28:15.298Z,37.12
2019-05-15T10:29:13.151Z,39.17
2019-05-15T10:30:14.864Z,38.64
2019-05-15T10:31:15.449Z,37.89
2019-05-15T10:32:16.013Z,38.26
2019-05-15T10:33:19.270Z,38.56
2019-05-15T10:34:18.359Z,38.42
2019-05-15T10:35:27.500Z,38.92
2019-05-15T10:36:18.903Z,37.47
2019-05-15T10:37:18.661Z,38.78
2019-05-15T10:38:19.563Z,39.04
2019-05-15T10:39:19.534Z,39.19
2019-05-15T10:40:20.621Z,39.14
2019-05-15T10:41:20.781Z,38.42
2019-05-15T10:42:22.688Z,37.16
2019-05-15T10:43:22.382Z,37.12
2019-05-15T10:44:24.154Z,37.93
2019-05-15T10:45:24.849Z,39.78
2019-05-15T10:46:24.480Z,39.46
2019-05-15T10:47:28.728Z,39.15
2019-05-15T10:48:25.930Z,37.09
2019-05-15T10:49:28.225Z,36.68
2019-05-15T10:50:28.403Z,36.38
2019-05-15T10:51:28.728Z,36.60
2019-05-15T10:52:28.737Z,37.80
2019-05-15T10:53:29.722Z,37.13
2019-05-15T10:54:29.767Z,36.15
2019-05-15T10:55:31.329Z,36.72
2019-05-15T10:56:31.932Z,37.11
2019-05-15T10:57:32.544Z,38.52
2019-05-15T10:58:33.293Z,37.97
2019-05-15T10:59:32.842Z,36.36
2019-05-15T11:00:34.452Z,36.14
2019-05-15T11:01:34.232Z,36.55
2019-05-15T11:02:35.914Z,37.68
2019-05-15T11:03:36.540Z,35.53
2019-05-15T11:04:39.126Z,36.70
2019-05-15T11:05:44.863Z,36.07
2019-05-15T11:06:38.313Z,36.28
2019-05-15T11:07:39.328Z,36.35
2019-05-15T11:08:40.733Z,36.34
2019-05-15T11:09:40.705Z,36.43
2019-05-15T11:10:41.918Z,35.92
2019-05-15T11:11:41.341Z,36.47
2019-05-15T11:12:43.022Z,36.13
2019-05-15T11:13:42.888Z,37.03
2019-05-15T11:14:43.969Z,36.82
2019-05-15T11:15:44.604Z,36.23
2019-05-15T11:16:45.366Z,36.67
2019-05-15T11:17:48.941Z,36.12
2019-05-15T11:18:48.045Z,37.81
2019-05-15T11:19:49.894Z,36.66
2019-05-15T11:20:48.634Z,37.08
2019-05-15T11:21:48.632Z,37.51
2019-05-15T11:22:49.990Z,37.41
2019-05-15T11:23:49.524Z,35.57
2019-05-15T11:24:52.976Z,37.27
2019-05-15T11:25:50.567Z,37.35
2019-05-15T11:26:55.733Z,38.56
2019-05-15T11:27:51.975Z,38.49
2019-05-15T11:28:53.023Z,37.16
2019-05-15T11:29:53.667Z,37.44
2019-05-15T11:30:54.363Z,37.54
2019-05-15T11:31:54.090Z,36.43
2019-05-15T11:32:55.621Z,36.88
2019-05-15T11:33:58.409Z,36.75
2019-05-15T11:34:58.113Z,36.39
2019-05-15T11:36:02.033Z,37.62
2019-05-15T11:36:59.311Z,36.90
2019-05-15T11:37:57.705Z,36.42
2019-05-15T11:38:59.449Z,35.71
2019-05-15T11:39:08.423Z,37.06
2019-05-15T11:40:10.016Z,37.28
2019-05-15T11:41:09.234Z,36.64
2019-05-15T11:42:11.086Z,36.23
2019-05-15T11:43:10.195Z,36.91
2019-05-15T11:44:11.751Z,37.79
2019-05-15T11:45:12.404Z,37.27
2019-05-15T11:46:13.104Z,37.81
2019-05-15T11:47:13.967Z,36.93
2019-05-15T11:48:14.596Z,37.68
2019-05-15T11:49:15.238Z,38.29
2019-05-15T11:50:19.992Z,37.44
2019-05-15T11:51:18.330Z,38.08
2019-05-15T11:52:18.608Z,38.77
2019-05-15T11:53:18.975Z,39.96
2019-05-15T11:54:19.107Z,37.99
2019-05-15T11:55:17.718Z,37.91
2019-05-15T11:56:19.337Z,38.83
2019-05-15T11:57:19.537Z,39.30
2019-05-15T11:58:20.299Z,38.40
2019-05-15T11:59:21.036Z,39.77
2019-05-15T12:00:26.839Z,39.48
2019-05-15T12:01:20.799Z,38.39
2019-05-15T12:02:22.420Z,38.41
2019-05-15T12:03:24.990Z,39.16
2019-05-15T12:04:29.806Z,38.24
2019-05-15T12:05:23.609Z,38.68
2019-05-15T12:06:25.152Z,38.66
2019-05-15T12:07:25.876Z,38.60
2019-05-15T12:08:29.050Z,39.38
2019-05-15T12:09:28.057Z,40.10
2019-05-15T12:10:28.724Z,39.48
2019-05-15T12:11:36.448Z,39.35
2019-05-15T12:12:31.492Z,39.08
2019-05-15T12:13:28.665Z,38.47
2019-05-15T12:14:30.336Z,38.06
2019-05-15T12:15:30.188Z,38.52
2019-05-15T12:16:35.533Z,41.08
2019-05-15T12:17:34.146Z,40.32
2019-05-15T12:18:32.610Z,39.47
2019-05-15T12:19:33.206Z,37.63
2019-05-15T12:20:35.016Z,38.27
2019-05-15T12:21:34.673Z,39.38
2019-05-15T12:22:38.921Z,40.97
2019-05-15T12:23:38.147Z,40.53
2019-05-15T12:24:37.754Z,40.16
2019-05-15T12:25:39.541Z,40.07
2019-05-15T12:26:39.382Z,40.12
2019-05-15T12:27:40.029Z,40.82
2019-05-15T12:28:40.562Z,40.00
2019-05-15T12:29:39.981Z,39.05
2019-05-15T12:30:40.577Z,38.96
2019-05-15T12:31:40.763Z,38.78
2019-05-15T12:32:42.383Z,38.47
2019-05-15T12:33:42.992Z,38.69
2019-05-15T12:34:43.062Z,38.55
2019-05-15T12:35:43.199Z,39.35
2019-05-15T12:36:53.228Z,38.25
2019-05-15T12:37:43.517Z,38.94
2019-05-15T12:38:45.168Z,39.29
2019-05-15T12:39:44.802Z,40.01
2019-05-15T12:59:58.348Z,38.21
2019-05-15T13:00:58.840Z,39.14
2019-05-15T13:02:00.472Z,38.78
2019-05-15T13:02:09.000Z,39.85
2019-05-15T13:03:10.544Z,39.83
2019-05-15T13:04:11.248Z,39.29
2019-05-15T13:05:11.972Z,37.66
2019-05-15T13:06:12.861Z,37.78
2019-05-15T13:07:16.746Z,38.18
2019-05-15T13:08:13.131Z,37.78
2019-05-15T13:09:14.983Z,37.10
2019-05-15T13:10:18.243Z,37.14